createdAt,value
2022-12-04T00:01:05.962Z,45.53
2022-12-04T00:04:03.928Z,48.07
2022-12-04T00:07:01.869Z,49.40
2022-12-04T00:10:00.007Z,49.42
2022-12-04T00:12:59.299Z,45.43
2022-12-04T00:16:00.229Z,48.63
2022-12-04T00:18:59.140Z,40.92
2022-12-04T00:21:57.109Z,49.70
2022-12-04T00:24:54.934Z,47.63
2022-12-04T00:27:52.840Z,48.40
2022-12-04T00:30:50.612Z,48.60
2022-12-04T00:33:48.578Z,45.13
2022-12-04T00:36:46.507Z,54.47
2022-12-04T00:39:44.572Z,48.08
2022-12-04T00:42:42.569Z,51.35
2022-12-04T00:45:40.420Z,43.03
2022-12-04T00:48:38.341Z,42.80
2022-12-04T00:51:36.181Z,49.95
2022-12-04T00:54:33.999Z,57.50
2022-12-04T00:57:32.117Z,49.17
2022-12-04T01:00:29.998Z,47.95
2022-12-04T01:03:28.040Z,47.30
2022-12-04T01:06:29.186Z,55.90
2022-12-04T01:09:27.134Z,59.30
2022-12-04T01:12:25.267Z,50.57
2022-12-04T01:15:23.082Z,52.20
2022-12-04T01:18:21.073Z,55.70
2022-12-04T01:21:19.450Z,49.60
2022-12-04T01:24:17.519Z,57.50
2022-12-04T01:27:15.513Z,55.57
2022-12-04T01:30:13.963Z,52.50
2022-12-04T01:33:11.820Z,39.47
2022-12-04T01:36:12.893Z,51.00
2022-12-04T01:39:10.700Z,60.37
2022-12-04T01:42:13.888Z,51.80
2022-12-04T01:45:37.528Z,53.13
2022-12-04T01:48:40.748Z,50.10
2022-12-04T01:51:42.379Z,52.10
2022-12-04T01:54:43.921Z,48.57
2022-12-04T01:57:43.189Z,52.73
2022-12-04T02:00:41.129Z,52.40
2022-12-04T02:03:39.696Z,46.90
2022-12-04T02:06:37.520Z,63.13
2022-12-04T02:09:37.146Z,42.33
2022-12-04T02:12:49.940Z,49.67
2022-12-04T02:16:15.116Z,49.40
2022-12-04T02:19:43.739Z,51.53
2022-12-04T02:23:12.246Z,47.27
2022-12-04T02:26:33.453Z,44.27
2022-12-04T02:29:54.047Z,45.10
2022-12-04T02:33:04.284Z,37.40
2022-12-04T02:36:22.483Z,36.40
2022-12-04T02:39:31.605Z,37.80
2022-12-04T02:42:48.954Z,28.40
2022-12-04T02:45:53.615Z,32.20
2022-12-04T02:48:54.321Z,37.17
2022-12-04T02:51:55.631Z,40.93
2022-12-04T02:55:01.102Z,35.90
2022-12-04T02:58:08.360Z,46.53
2022-12-04T03:01:24.462Z,67.40
2022-12-04T03:04:26.692Z,61.00
2022-12-04T03:07:33.775Z,65.30
2022-12-04T03:10:37.493Z,59.97
2022-12-04T03:13:47.119Z,73.32
2022-12-04T03:16:46.842Z,85.60
2022-12-04T03:19:52.744Z,70.78
2022-12-04T03:22:58.868Z,70.63
2022-12-04T03:26:09.419Z,66.18
2022-12-04T03:29:24.251Z,67.72
2022-12-04T03:32:32.809Z,73.00
2022-12-04T03:35:47.227Z,93.70
2022-12-04T03:39:04.226Z,89.28
2022-12-04T03:42:12.676Z,74.43
2022-12-04T03:45:26.304Z,67.50
2022-12-04T03:48:32.240Z,65.57
2022-12-04T03:51:39.179Z,67.80
2022-12-04T03:54:45.393Z,64.55
2022-12-04T03:57:46.413Z,50.93
2022-12-04T04:00:48.152Z,51.87
2022-12-04T04:04:10.919Z,46.28
2022-12-04T04:10:15.322Z,35.40
2022-12-04T04:13:33.210Z,34.53
2022-12-04T04:16:49.862Z,51.90
2022-12-04T04:20:09.199Z,42.67
2022-12-04T04:23:26.159Z,46.38
2022-12-04T04:26:27.541Z,38.75
2022-12-04T04:29:27.001Z,47.35
2022-12-04T04:32:42.557Z,37.85
2022-12-04T04:35:53.256Z,37.47
2022-12-04T04:39:06.541Z,43.03
2022-12-04T04:42:31.867Z,27.67
2022-12-04T04:45:45.633Z,32.53
2022-12-04T04:48:48.244Z,33.42
2022-12-04T04:51:47.096Z,38.78
2022-12-04T04:54:47.486Z,30.52
2022-12-04T04:57:45.483Z,36.10
2022-12-04T05:00:51.937Z,39.72
2022-12-04T05:03:50.037Z,30.95
2022-12-04T05:06:49.490Z,32.28
2022-12-04T05:09:47.424Z,29.98
2022-12-04T05:12:45.332Z,36.50
2022-12-04T05:15:43.688Z,23.45
2022-12-04T05:18:43.982Z,28.95
2022-12-04T05:21:42.316Z,29.08
2022-12-04T05:24:40.207Z,36.45
2022-12-04T05:27:38.282Z,30.40
2022-12-04T05:30:36.100Z,30.92
2022-12-04T05:33:34.224Z,32.30
2022-12-04T05:36:31.998Z,28.85
2022-12-04T05:39:29.969Z,36.53
2022-12-04T05:42:27.948Z,44.47
2022-12-04T05:45:26.088Z,40.97
2022-12-04T05:48:24.057Z,50.78
2022-12-04T05:51:21.984Z,39.42
2022-12-04T05:54:20.374Z,49.38
2022-12-04T05:57:18.267Z,41.58
2022-12-04T06:00:17.116Z,54.42
2022-12-04T06:03:15.643Z,68.43
2022-12-04T06:06:21.116Z,47.03
2022-12-04T06:09:20.056Z,51.50
2022-12-04T06:12:18.150Z,47.97
2022-12-04T06:15:16.052Z,51.20
2022-12-04T06:18:13.985Z,59.13
2022-12-04T06:21:11.834Z,69.47
2022-12-04T06:24:16.045Z,80.57
2022-12-04T06:27:29.268Z,91.80
2022-12-04T06:30:27.519Z,88.90
2022-12-04T06:33:25.873Z,75.25
2022-12-04T06:36:24.516Z,80.82
2022-12-04T06:39:22.855Z,83.88
2022-12-04T06:42:21.366Z,87.88
2022-12-04T06:45:19.217Z,98.47
2022-12-04T06:48:17.188Z,91.90
2022-12-04T06:51:19.480Z,83.53
2022-12-04T06:54:17.494Z,95.80
2022-12-04T06:57:15.353Z,167.68
2022-12-04T07:00:13.680Z,100.72
2022-12-04T07:03:11.490Z,98.38
2022-12-04T07:06:26.278Z,92.50
2022-12-04T07:09:24.005Z,104.93
2022-12-04T07:12:21.989Z,125.40
2022-12-04T07:15:20.232Z,105.65
2022-12-04T07:18:18.205Z,113.85
2022-12-04T07:21:19.432Z,99.90
2022-12-04T07:24:18.191Z,110.38
2022-12-04T07:27:16.003Z,128.55
2022-12-04T07:30:15.872Z,106.20
2022-12-04T07:33:14.838Z,121.60
2022-12-04T07:36:15.559Z,113.80
2022-12-04T07:39:13.946Z,118.50
2022-12-04T07:42:18.469Z,105.28
2022-12-04T07:45:21.305Z,153.02
2022-12-04T07:48:19.621Z,160.82
2022-12-04T07:51:20.391Z,103.93
2022-12-04T07:54:18.385Z,102.10
2022-12-04T07:57:16.334Z,98.95
2022-12-04T08:00:14.926Z,103.32
2022-12-04T08:03:12.811Z,130.05
2022-12-04T08:06:11.282Z,190.27
2022-12-04T08:09:10.443Z,156.23
2022-12-04T08:12:08.868Z,108.28
2022-12-04T08:15:07.356Z,123.88
2022-12-04T08:18:05.449Z,106.75
2022-12-04T08:21:06.639Z,116.63
2022-12-04T08:24:04.897Z,107.93
2022-12-04T08:27:02.916Z,113.55
2022-12-04T08:30:00.923Z,110.70
2022-12-04T08:32:58.762Z,100.35
2022-12-04T08:35:56.762Z,124.67
2022-12-04T08:38:55.108Z,109.70
2022-12-04T08:41:56.951Z,127.68
2022-12-04T08:44:55.143Z,129.48
2022-12-04T08:47:53.169Z,121.95
2022-12-04T08:50:51.310Z,134.02
2022-12-04T08:53:49.510Z,118.80
2022-12-04T08:56:47.218Z,139.93
2022-12-04T08:59:45.047Z,126.32
2022-12-04T09:02:43.097Z,119.38
2022-12-04T09:05:42.308Z,133.90
2022-12-04T09:08:40.373Z,135.43
2022-12-04T09:11:38.337Z,142.60
2022-12-04T09:14:36.316Z,134.50
2022-12-04T09:17:36.915Z,211.98
2022-12-04T09:20:35.055Z,162.27
2022-12-04T09:23:34.183Z,145.05
2022-12-04T09:26:33.995Z,154.27
2022-12-04T09:29:32.723Z,155.95
2022-12-04T09:32:30.879Z,146.45
2022-12-04T09:35:30.534Z,155.40
2022-12-04T09:38:29.809Z,165.13
2022-12-04T09:42:03.066Z,166.73
2022-12-04T09:45:19.710Z,167.90
2022-12-04T09:48:19.835Z,195.30
2022-12-04T09:51:23.024Z,210.98
2022-12-04T09:54:24.534Z,299.75
2022-12-04T09:57:30.057Z,145.80
2022-12-04T10:00:28.979Z,156.15
2022-12-04T10:03:29.533Z,162.40
2022-12-04T10:06:33.244Z,190.68
2022-12-04T10:09:46.370Z,142.27
2022-12-04T10:16:08.495Z,149.67
2022-12-04T10:19:34.250Z,184.18
2022-12-04T10:22:59.219Z,158.07
2022-12-04T10:25:57.955Z,157.20
2022-12-04T10:29:03.231Z,152.13
2022-12-04T10:32:16.792Z,162.83
2022-12-04T10:35:30.016Z,154.70
2022-12-04T10:38:45.260Z,162.10
2022-12-04T10:42:02.080Z,164.77
2022-12-04T10:45:00.079Z,159.77
2022-12-04T10:47:58.998Z,160.73
2022-12-04T10:50:57.714Z,152.20
2022-12-04T10:53:57.496Z,147.67
2022-12-04T10:56:59.315Z,155.63
2022-12-04T10:59:57.979Z,165.57
2022-12-04T11:02:58.199Z,164.33
2022-12-04T11:06:03.975Z,180.00
2022-12-04T11:09:04.357Z,183.60
2022-12-04T11:12:20.554Z,180.13
2022-12-04T11:15:18.531Z,165.67
2022-12-04T11:18:21.311Z,174.70
2022-12-04T11:21:28.266Z,162.88
2022-12-04T11:24:33.714Z,156.43
2022-12-04T11:27:34.958Z,159.80
2022-12-04T11:30:36.320Z,178.33
2022-12-04T11:33:38.998Z,153.73
2022-12-04T11:36:41.510Z,195.13
2022-12-04T11:39:42.799Z,193.60
2022-12-04T11:42:40.557Z,293.43
2022-12-04T11:45:38.914Z,212.37
2022-12-04T11:48:45.818Z,172.13
2022-12-04T11:52:07.820Z,163.37
2022-12-04T11:55:29.073Z,166.48
2022-12-04T11:58:50.454Z,165.33
2022-12-04T12:01:58.447Z,152.70
2022-12-04T12:05:12.015Z,146.50
2022-12-04T12:08:40.524Z,165.40
2022-12-04T12:11:52.204Z,160.23
2022-12-04T12:15:09.137Z,169.90
2022-12-04T12:18:25.083Z,166.40
2022-12-04T12:21:28.430Z,160.97
2022-12-04T12:27:58.414Z,155.77
2022-12-04T12:31:14.176Z,153.90
2022-12-04T12:34:19.091Z,159.93
2022-12-04T12:37:35.373Z,171.43
2022-12-04T12:40:41.128Z,171.67
2022-12-04T12:43:40.369Z,158.97
2022-12-04T12:46:49.542Z,179.20
2022-12-04T12:50:10.899Z,201.17
2022-12-04T12:53:16.092Z,205.30
2022-12-04T12:56:14.960Z,247.27
2022-12-04T12:59:20.112Z,219.37
2022-12-04T13:02:40.417Z,195.87
2022-12-04T13:05:44.021Z,221.17
2022-12-04T13:11:51.545Z,208.40
2022-12-04T13:14:49.556Z,200.37
2022-12-04T13:17:52.807Z,202.47
2022-12-04T13:20:55.949Z,197.43
2022-12-04T13:24:24.624Z,174.25
2022-12-04T13:27:46.300Z,159.60
2022-12-04T13:30:57.525Z,179.53
2022-12-04T13:34:18.170Z,164.87
2022-12-04T13:37:37.883Z,167.67
2022-12-04T13:40:41.117Z,187.03
2022-12-04T13:43:49.248Z,166.88
2022-12-04T13:47:00.170Z,180.60
2022-12-04T13:50:24.388Z,176.07
2022-12-04T13:53:39.079Z,179.00
2022-12-04T13:56:37.350Z,194.10
2022-12-04T13:59:38.915Z,186.73
2022-12-04T14:02:38.593Z,174.30
2022-12-04T14:05:44.910Z,162.83
2022-12-04T14:08:44.762Z,160.03
2022-12-04T14:11:47.083Z,156.30
2022-12-04T14:14:54.031Z,165.60
2022-12-04T14:18:18.737Z,172.37
2022-12-04T14:21:16.549Z,164.77
2022-12-04T14:24:31.224Z,158.57
2022-12-04T14:27:35.361Z,165.83
2022-12-04T14:30:40.442Z,165.70
2022-12-04T14:33:45.336Z,164.90
2022-12-04T14:36:46.964Z,155.80
2022-12-04T14:39:48.275Z,152.10
2022-12-04T14:42:53.129Z,152.67
2022-12-04T14:46:02.072Z,160.33
2022-12-04T14:49:21.283Z,157.30
2022-12-04T14:52:41.224Z,142.77
2022-12-04T14:56:07.476Z,154.00
2022-12-04T14:59:16.534Z,143.33
2022-12-04T15:02:21.049Z,145.73
2022-12-04T15:05:29.495Z,138.00
2022-12-04T15:08:27.351Z,174.03
2022-12-04T15:11:41.566Z,153.97
2022-12-04T15:14:49.656Z,146.63
2022-12-04T15:18:04.876Z,174.50
2022-12-04T15:21:05.158Z,197.73
2022-12-04T15:24:08.544Z,201.10
2022-12-04T15:27:07.578Z,189.27
2022-12-04T15:30:05.944Z,205.97
2022-12-04T15:33:04.618Z,205.70
2022-12-04T15:36:20.948Z,214.70
2022-12-04T15:39:24.758Z,198.70
2022-12-04T15:42:31.642Z,182.30
2022-12-04T15:45:32.993Z,220.80
2022-12-04T15:48:32.475Z,201.97
2022-12-04T15:51:30.720Z,197.43
2022-12-04T15:54:28.782Z,210.93
2022-12-04T15:57:43.463Z,178.80
2022-12-04T16:00:43.432Z,194.03
2022-12-04T16:03:50.882Z,205.67
2022-12-04T16:06:51.295Z,183.57
2022-12-04T16:10:02.612Z,190.97
2022-12-04T16:13:04.010Z,205.40
2022-12-04T16:16:07.105Z,186.27
2022-12-04T16:19:10.663Z,163.98
2022-12-04T16:22:20.256Z,172.13
2022-12-04T16:25:18.706Z,185.57
2022-12-04T16:28:16.526Z,177.07
2022-12-04T16:31:15.284Z,178.50
2022-12-04T16:34:14.397Z,180.43
2022-12-04T16:37:14.959Z,187.90
2022-12-04T16:40:14.054Z,182.87
2022-12-04T16:43:15.091Z,197.37
2022-12-04T16:46:19.814Z,209.60
2022-12-04T16:49:17.636Z,226.70
2022-12-04T16:52:15.640Z,219.67
2022-12-04T16:55:24.945Z,241.67
2022-12-04T16:58:22.891Z,220.03
2022-12-04T17:01:34.819Z,208.40
2022-12-04T17:04:32.649Z,188.00
2022-12-04T17:07:30.518Z,208.37
2022-12-04T17:10:30.089Z,213.13
2022-12-04T17:13:28.282Z,216.33
2022-12-04T17:16:26.441Z,206.80
2022-12-04T17:19:24.291Z,205.90
2022-12-04T17:22:26.928Z,259.37
2022-12-04T17:25:24.902Z,257.02
2022-12-04T17:28:22.678Z,249.00
2022-12-04T17:31:24.007Z,238.83
2022-12-04T17:34:22.542Z,249.80
2022-12-04T17:37:21.791Z,253.87
2022-12-04T17:40:19.890Z,271.17
2022-12-04T17:43:22.101Z,234.83
2022-12-04T17:46:23.388Z,250.00
2022-12-04T17:49:21.505Z,216.77
2022-12-04T17:52:19.806Z,240.43
2022-12-04T17:55:18.112Z,205.03
2022-12-04T17:58:15.822Z,218.73
2022-12-04T18:01:17.000Z,215.97
2022-12-04T18:04:14.960Z,203.07
2022-12-04T18:07:13.083Z,209.50
2022-12-04T18:10:11.103Z,215.43
2022-12-04T18:13:09.050Z,202.40
2022-12-04T18:16:09.514Z,182.47
2022-12-04T18:19:07.814Z,196.03
2022-12-04T18:22:05.677Z,210.27
2022-12-04T18:25:03.830Z,197.23
2022-12-04T18:28:01.910Z,202.50
2022-12-04T18:31:05.014Z,205.27
2022-12-04T18:34:05.399Z,192.00
2022-12-04T18:37:03.356Z,202.30
2022-12-04T18:40:06.221Z,196.63
2022-12-04T18:46:07.733Z,200.90
2022-12-04T18:49:06.668Z,207.17
2022-12-04T18:52:04.563Z,180.27
2022-12-04T18:55:02.999Z,193.80
2022-12-04T18:58:01.068Z,194.60
2022-12-04T19:01:06.359Z,180.60
2022-12-04T19:04:07.017Z,172.53
2022-12-04T19:07:05.779Z,173.93
2022-12-04T19:10:11.674Z,176.77
2022-12-04T19:13:09.738Z,170.77
2022-12-04T19:16:13.556Z,187.87
2022-12-04T19:19:13.478Z,155.23
2022-12-04T19:22:11.561Z,166.80
2022-12-04T19:25:09.625Z,151.43
2022-12-04T19:28:07.810Z,133.07
2022-12-04T19:31:05.892Z,139.10
2022-12-04T19:34:04.525Z,151.10
2022-12-04T19:37:02.581Z,146.60
2022-12-04T19:40:00.523Z,140.67
2022-12-04T19:43:02.855Z,140.17
2022-12-04T19:46:01.509Z,142.30
2022-12-04T19:49:04.222Z,135.83
2022-12-04T19:52:02.159Z,152.32
2022-12-04T19:54:59.923Z,138.83
2022-12-04T19:57:57.841Z,148.00
2022-12-04T20:00:57.015Z,127.40
2022-12-04T20:03:55.613Z,155.23
2022-12-04T20:06:54.188Z,136.40
2022-12-04T20:09:55.178Z,158.90
2022-12-04T20:12:53.419Z,139.87
2022-12-04T20:15:51.721Z,158.83
2022-12-04T20:18:49.846Z,182.07
2022-12-04T20:21:48.175Z,131.97
2022-12-04T20:24:46.039Z,151.03
2022-12-04T20:27:43.738Z,148.27
2022-12-04T20:30:42.016Z,164.80
2022-12-04T20:33:41.558Z,152.30
2022-12-04T20:36:43.641Z,133.90
2022-12-04T20:39:41.788Z,136.73
2022-12-04T20:42:39.749Z,137.50
2022-12-04T20:45:37.717Z,127.97
2022-12-04T20:48:35.570Z,127.40
2022-12-04T20:51:37.698Z,126.27
2022-12-04T20:54:41.378Z,118.77
2022-12-04T20:57:39.914Z,129.57
2022-12-04T21:00:37.920Z,152.03
2022-12-04T21:03:35.969Z,164.07
2022-12-04T21:06:39.001Z,163.33
2022-12-04T21:09:37.205Z,139.65
2022-12-04T21:12:50.316Z,161.53
2022-12-04T21:16:03.511Z,200.97
2022-12-04T21:19:02.286Z,232.13
2022-12-04T21:22:00.309Z,200.57
2022-12-04T21:24:58.211Z,199.67
2022-12-04T21:27:56.172Z,208.50
2022-12-04T21:30:54.021Z,204.07
2022-12-04T21:33:52.084Z,223.97
2022-12-04T21:36:49.957Z,192.23
2022-12-04T21:39:47.813Z,174.03
2022-12-04T21:42:45.971Z,164.57
2022-12-04T21:45:46.446Z,162.50
2022-12-04T21:48:44.221Z,187.67
2022-12-04T21:51:58.932Z,171.23
2022-12-04T21:54:57.659Z,175.50
2022-12-04T21:57:55.632Z,184.57
2022-12-04T22:00:53.757Z,181.63
2022-12-04T22:03:52.315Z,124.03
2022-12-04T22:06:51.114Z,99.13
2022-12-04T22:09:49.087Z,118.37
2022-12-04T22:12:50.726Z,106.13
2022-12-04T22:15:48.991Z,107.33
2022-12-04T22:18:47.667Z,106.33
2022-12-04T22:21:45.802Z,93.80
2022-12-04T22:24:43.714Z,86.80
2022-12-04T22:27:42.169Z,96.47
2022-12-04T22:30:40.315Z,95.03
2022-12-04T22:33:39.072Z,100.13
2022-12-04T22:36:36.817Z,100.17
2022-12-04T22:39:34.758Z,104.37
2022-12-04T22:42:32.843Z,95.17
2022-12-04T22:45:30.730Z,121.93
2022-12-04T22:48:31.869Z,121.47
2022-12-04T22:51:30.458Z,113.57
2022-12-04T22:54:28.652Z,125.87
2022-12-04T22:57:26.587Z,124.63
2022-12-04T23:00:24.573Z,125.80
2022-12-04T23:03:22.842Z,117.07
2022-12-04T23:06:22.149Z,117.63
2022-12-04T23:09:20.304Z,149.67
2022-12-04T23:12:18.256Z,145.20
2022-12-04T23:15:16.331Z,150.00
2022-12-04T23:18:14.457Z,124.90
2022-12-04T23:21:14.285Z,134.87
2022-12-04T23:24:13.782Z,129.73
2022-12-04T23:27:11.631Z,126.63
2022-12-04T23:30:10.071Z,134.87
2022-12-04T23:33:07.995Z,135.10
2022-12-04T23:36:07.869Z,136.37
2022-12-04T23:39:08.723Z,122.20
2022-12-04T23:42:06.851Z,125.00
2022-12-04T23:45:05.372Z,146.13
2022-12-04T23:48:03.240Z,142.23
2022-12-04T23:51:01.096Z,131.07
2022-12-04T23:53:59.841Z,128.20
2022-12-04T23:56:57.747Z,135.47
2022-12-04T23:59:55.854Z,146.63
